Time;durP1;ratioP1;P1;durP2;ratioP2;P2;SDS_P1;SDS_P2;PMS_P1;PMS_P2;Temp;Humidity;BMP_temperature;BMP_pressure;BME280_temperature;BME280_humidity;BME280_pressure;Samples;Min_cycle;Max_cycle;Signal;HPM_P1;HPM_P2
2022/03/10 00:00:45;;;;;;;;;;;5.70;99.90;;;;;;5093913;28;19961;-80
2022/03/10 00:03:10;;;;;;;;;;;5.80;99.90;;;;;;5093300;28;19974;-80
2022/03/10 00:05:36;;;;;;;;;;;5.70;99.90;;;;;;5092413;28;19923;-81
2022/03/10 00:08:01;;;;;;;;;;;5.70;99.90;;;;;;5093324;28;20598;-77
2022/03/10 00:10:27;;;;;;;;;;;5.80;99.90;;;;;;5093736;28;19920;-81
2022/03/10 00:12:53;;;;;;;;;;;5.80;99.90;;;;;;5093673;28;20400;-81
2022/03/10 00:15:23;;;;;;;;;;;5.80;99.90;;;;;;5092922;28;20285;-81
2022/03/10 00:17:49;;;;;;;;;;;5.80;99.90;;;;;;5094214;28;19912;-81
2022/03/10 00:20:15;;;;;;;;;;;5.80;99.90;;;;;;5092676;28;19915;-82
2022/03/10 00:22:47;;;;;;;;;;;5.80;99.90;;;;;;5093476;28;19908;-81
2022/03/10 00:25:14;;;;;;;;;;;5.80;99.90;;;;;;5092979;28;19915;-80
2022/03/10 00:27:39;;;;;;;;;;;5.80;99.90;;;;;;5106161;28;19912;-81
2022/03/10 00:30:05;;;;;;;;;;;5.80;99.90;;;;;;5107726;28;20027;-80
2022/03/10 00:32:31;;;;;;;;;;;5.80;99.90;;;;;;5103327;28;20356;-81
2022/03/10 00:34:56;;;;;;;;;;;5.80;99.90;;;;;;5096832;28;19999;-82
2022/03/10 00:37:22;;;;;;;;;;;5.80;99.90;;;;;;5091423;28;19959;-81
2022/03/10 00:39:48;;;;;;;;;;;5.80;99.90;;;;;;5093198;28;19913;-82
2022/03/10 00:42:13;;;;;;;;;;;5.80;99.90;;;;;;5092539;28;19991;-82
2022/03/10 00:44:39;;;;;;;;;;;5.80;99.90;;;;;;5092957;28;19908;-79
2022/03/10 00:47:04;;;;;;;;;;;5.80;99.90;;;;;;5092442;28;20070;-80
2022/03/10 00:49:30;;;;;;;;;;;5.80;99.90;;;;;;5092931;28;20280;-82
2022/03/10 00:51:55;;;;;;;;;;;5.70;99.90;;;;;;5092839;28;19931;-82
2022/03/10 00:54:21;;;;;;;;;;;5.70;99.90;;;;;;5092633;28;19986;-82
2022/03/10 00:56:46;;;;;;;;;;;5.70;99.90;;;;;;5092696;28;19908;-82
2022/03/10 00:59:12;;;;;;;;;;;5.70;99.90;;;;;;5091884;28;20361;-81
2022/03/10 01:01:38;;;;;;;;;;;5.70;99.90;;;;;;5092869;28;19912;-82
2022/03/10 01:04:03;;;;;;;;;;;5.60;99.90;;;;;;5092039;28;19951;-80
2022/03/10 01:06:29;;;;;;;;;;;5.70;99.90;;;;;;5092644;28;19969;-80
2022/03/10 01:08:54;;;;;;;;;;;5.70;99.90;;;;;;5092226;28;19916;-81
2022/03/10 01:11:20;;;;;;;;;;;5.70;99.90;;;;;;5092142;28;20827;-81
2022/03/10 01:13:46;;;;;;;;;;;5.70;99.90;;;;;;5092569;28;19969;-81
2022/03/10 01:16:11;;;;;;;;;;;5.70;99.90;;;;;;5114014;28;19930;-81
2022/03/10 01:18:37;;;;;;;;;;;5.70;99.90;;;;;;5092669;28;19912;-81
2022/03/10 01:21:02;;;;;;;;;;;5.60;99.90;;;;;;5107379;28;19908;-78
2022/03/10 01:23:28;;;;;;;;;;;5.60;99.90;;;;;;5099839;28;19908;-81
2022/03/10 01:25:54;;;;;;;;;;;5.60;99.90;;;;;;5092575;28;19915;-79
2022/03/10 01:28:19;;;;;;;;;;;5.60;99.90;;;;;;5091467;28;20348;-81
2022/03/10 01:30:45;;;;;;;;;;;5.70;99.90;;;;;;5092418;28;19916;-81
2022/03/10 01:33:10;;;;;;;;;;;5.70;99.90;;;;;;5091557;28;20002;-80
2022/03/10 01:35:36;;;;;;;;;;;5.60;99.90;;;;;;5092483;28;19977;-80
2022/03/10 01:38:01;;;;;;;;;;;5.60;99.90;;;;;;5092982;28;20434;-78
2022/03/10 01:40:28;;;;;;;;;;;5.60;99.90;;;;;;5092615;28;20395;-80
2022/03/10 01:42:54;;;;;;;;;;;5.60;99.90;;;;;;5092927;28;19934;-80
2022/03/10 01:45:19;;;;;;;;;;;5.60;99.90;;;;;;5092343;28;19995;-80
2022/03/10 01:47:45;;;;;;;;;;;5.60;99.90;;;;;;5092917;28;19908;-79
2022/03/10 01:50:12;;;;;;;;;;;5.60;99.90;;;;;;5092273;28;20022;-80
2022/03/10 01:52:38;;;;;;;;;;;5.60;99.90;;;;;;5092606;28;19912;-80
2022/03/10 01:55:05;;;;;;;;;;;5.60;99.90;;;;;;5092602;28;19960;-77
2022/03/10 01:57:30;;;;;;;;;;;5.60;99.90;;;;;;5091324;28;19912;-80
2022/03/10 01:59:56;;;;;;;;;;;5.60;99.90;;;;;;5092595;28;19977;-79
2022/03/10 02:02:22;;;;;;;;;;;5.70;99.90;;;;;;5092173;28;20265;-79
2022/03/10 02:04:47;;;;;;;;;;;5.70;99.90;;;;;;5092522;28;20285;-79
2022/03/10 02:10:17;;;;;;;;;;;5.70;99.90;;;;;;5094511;28;20291;-80
2022/03/10 02:12:52;;;;;;;;;;;5.70;99.90;;;;;;5097021;28;19916;-80
2022/03/10 02:18:10;;;;;;;;;;;5.70;99.90;;;;;;5096075;28;19915;-80
2022/03/10 02:20:36;;;;;;;;;;;5.70;99.90;;;;;;5095161;28;19912;-80
2022/03/10 02:23:02;;;;;;;;;;;5.60;99.90;;;;;;5095943;28;20280;-80
2022/03/10 02:25:28;;;;;;;;;;;5.70;99.90;;;;;;5095605;28;19911;-80
2022/03/10 02:27:55;;;;;;;;;;;5.70;99.90;;;;;;5096267;28;19953;-80
2022/03/10 02:30:23;;;;;;;;;;;5.60;99.90;;;;;;5095213;28;20292;-80
2022/03/10 02:32:49;;;;;;;;;;;5.70;99.90;;;;;;5096339;28;19961;-80
2022/03/10 02:35:15;;;;;;;;;;;5.60;99.90;;;;;;5097652;28;19908;-80
2022/03/10 02:37:41;;;;;;;;;;;5.60;99.90;;;;;;5096091;28;19999;-80
2022/03/10 02:40:06;;;;;;;;;;;5.70;99.90;;;;;;5096067;28;19994;-77
2022/03/10 02:42:32;;;;;;;;;;;5.70;99.90;;;;;;5095669;28;19908;-80
2022/03/10 02:44:58;;;;;;;;;;;5.60;99.90;;;;;;5095998;28;19999;-79
2022/03/10 02:47:24;;;;;;;;;;;5.60;99.90;;;;;;5095156;28;19955;-79
2022/03/10 02:49:49;;;;;;;;;;;5.70;99.90;;;;;;5095914;28;19923;-79
2022/03/10 02:52:15;;;;;;;;;;;5.70;99.90;;;;;;5094984;28;19966;-79
2022/03/10 02:54:41;;;;;;;;;;;5.60;99.90;;;;;;5095829;28;19908;-79
2022/03/10 02:57:08;;;;;;;;;;;5.70;99.90;;;;;;5095761;28;19943;-79
2022/03/10 02:59:34;;;;;;;;;;;5.70;99.90;;;;;;5094836;28;20084;-79
2022/03/10 03:01:59;;;;;;;;;;;5.70;99.90;;;;;;5095829;28;20385;-79
2022/03/10 03:04:25;;;;;;;;;;;5.70;99.90;;;;;;5100694;28;19915;-79
2022/03/10 03:06:51;;;;;;;;;;;5.70;99.90;;;;;;5098396;28;19908;-79
2022/03/10 03:09:16;;;;;;;;;;;5.70;99.90;;;;;;5094998;28;19923;-78
2022/03/10 03:11:42;;;;;;;;;;;5.70;99.90;;;;;;5095897;28;19912;-78
2022/03/10 03:14:08;;;;;;;;;;;5.70;99.90;;;;;;5095098;28;19995;-78
2022/03/10 03:16:34;;;;;;;;;;;5.70;99.90;;;;;;5095017;28;19961;-78
2022/03/10 03:18:59;;;;;;;;;;;5.70;99.90;;;;;;5094923;28;19908;-78
2022/03/10 03:21:25;;;;;;;;;;;5.60;99.90;;;;;;5093485;28;19916;-78
2022/03/10 03:23:51;;;;;;;;;;;5.60;99.90;;;;;;5095637;28;19962;-78
2022/03/10 03:26:16;;;;;;;;;;;5.60;99.90;;;;;;5094736;28;20364;-78
2022/03/10 03:28:43;;;;;;;;;;;5.70;99.90;;;;;;5094934;28;19912;-79
2022/03/10 03:31:09;;;;;;;;;;;5.70;99.90;;;;;;5094990;28;20421;-79
2022/03/10 03:33:35;;;;;;;;;;;5.60;99.90;;;;;;5093046;28;19908;-78
2022/03/10 03:36:01;;;;;;;;;;;5.70;99.90;;;;;;5094719;28;19915;-78
2022/03/10 03:38:27;;;;;;;;;;;5.70;99.90;;;;;;5094825;28;19909;-78
2022/03/10 03:40:52;;;;;;;;;;;5.70;99.90;;;;;;5094797;28;19915;-78
2022/03/10 03:43:18;;;;;;;;;;;5.70;99.90;;;;;;5093074;28;19916;-78
2022/03/10 03:45:43;;;;;;;;;;;5.70;99.90;;;;;;5094682;28;19908;-78
2022/03/10 03:48:09;;;;;;;;;;;5.70;99.90;;;;;;5094615;28;19912;-78
2022/03/10 03:50:35;;;;;;;;;;;5.70;99.90;;;;;;5094163;28;20007;-78
2022/03/10 03:53:00;;;;;;;;;;;5.70;99.90;;;;;;5094796;28;19908;-79
2022/03/10 03:55:26;;;;;;;;;;;5.60;99.90;;;;;;5094069;28;19908;-79
2022/03/10 03:57:52;;;;;;;;;;;5.60;99.90;;;;;;5094343;28;19920;-78
2022/03/10 04:00:18;;;;;;;;;;;5.60;99.90;;;;;;5094104;28;19973;-78
2022/03/10 04:02:44;;;;;;;;;;;5.60;99.90;;;;;;5094199;28;19912;-79
2022/03/10 04:05:10;;;;;;;;;;;5.60;99.90;;;;;;5094500;28;20253;-79
2022/03/10 04:07:36;;;;;;;;;;;5.60;99.90;;;;;;5092259;28;19912;-79
2022/03/10 04:10:02;;;;;;;;;;;5.60;99.90;;;;;;5094413;28;19922;-79
2022/03/10 04:12:28;;;;;;;;;;;5.50;99.90;;;;;;5093756;28;19918;-79
2022/03/10 04:14:53;;;;;;;;;;;5.60;99.90;;;;;;5094285;28;20341;-79
2022/03/10 04:17:19;;;;;;;;;;;5.60;99.90;;;;;;5093291;28;20004;-78
2022/03/10 04:19:45;;;;;;;;;;;5.50;99.90;;;;;;5094171;28;20414;-78
2022/03/10 04:22:10;;;;;;;;;;;5.40;99.90;;;;;;5095535;28;19999;-79
2022/03/10 04:24:36;;;;;;;;;;;5.40;99.90;;;;;;5096300;28;19908;-79
2022/03/10 04:27:02;;;;;;;;;;;5.40;99.90;;;;;;5093972;28;19955;-79
2022/03/10 04:29:27;;;;;;;;;;;5.40;99.90;;;;;;5093337;28;20417;-79
2022/03/10 04:31:53;;;;;;;;;;;5.50;99.90;;;;;;5093295;28;19908;-79
2022/03/10 04:34:18;;;;;;;;;;;5.50;99.90;;;;;;5093211;28;19916;-79
2022/03/10 04:36:44;;;;;;;;;;;5.50;99.90;;;;;;5093430;28;19915;-79
2022/03/10 04:39:10;;;;;;;;;;;5.50;99.90;;;;;;5093792;28;20349;-79
2022/03/10 04:41:36;;;;;;;;;;;5.40;99.90;;;;;;5093257;28;20002;-79
2022/03/10 04:44:01;;;;;;;;;;;5.40;99.90;;;;;;5094140;28;19912;-79
2022/03/10 04:46:27;;;;;;;;;;;5.30;99.90;;;;;;5092974;28;19908;-79
2022/03/10 04:48:52;;;;;;;;;;;5.30;99.90;;;;;;5093532;28;20361;-79
2022/03/10 04:51:18;;;;;;;;;;;5.20;99.90;;;;;;5093583;28;19908;-77
2022/03/10 04:53:44;;;;;;;;;;;5.30;99.90;;;;;;5093891;28;19914;-79
2022/03/10 04:56:09;;;;;;;;;;;5.20;99.90;;;;;;5093578;28;20016;-79
2022/03/10 04:58:35;;;;;;;;;;;5.30;99.90;;;;;;5092451;28;20372;-79
2022/03/10 05:01:00;;;;;;;;;;;5.30;99.90;;;;;;5093432;28;20392;-79
2022/03/10 05:03:26;;;;;;;;;;;5.30;99.90;;;;;;5092620;28;19931;-79
2022/03/10 05:05:52;;;;;;;;;;;5.20;99.90;;;;;;5093336;28;19912;-79
2022/03/10 05:08:17;;;;;;;;;;;5.20;99.90;;;;;;5093033;28;19959;-77
2022/03/10 05:10:43;;;;;;;;;;;5.20;99.90;;;;;;5092582;28;19923;-78
2022/03/10 05:13:09;;;;;;;;;;;5.20;99.90;;;;;;5092946;28;20370;-78
2022/03/10 05:15:34;;;;;;;;;;;5.20;99.90;;;;;;5092734;28;19908;-78
2022/03/10 05:18:01;;;;;;;;;;;5.20;99.90;;;;;;5091714;28;19915;-78
2022/03/10 05:20:27;;;;;;;;;;;5.30;99.90;;;;;;5092666;28;19908;-78
2022/03/10 05:22:53;;;;;;;;;;;5.20;99.90;;;;;;5093122;28;20371;-78
2022/03/10 05:25:20;;;;;;;;;;;5.20;99.90;;;;;;5092603;28;19947;-76
2022/03/10 05:27:46;;;;;;;;;;;5.20;99.90;;;;;;5092827;28;19930;-78
2022/03/10 05:30:12;;;;;;;;;;;5.20;99.90;;;;;;5092679;28;20361;-78
2022/03/10 05:32:37;;;;;;;;;;;5.20;99.90;;;;;;5092382;28;19912;-78
2022/03/10 05:35:03;;;;;;;;;;;5.20;99.90;;;;;;5093058;28;20372;-78
2022/03/10 05:37:29;;;;;;;;;;;5.20;99.90;;;;;;5092481;28;19999;-78
2022/03/10 05:39:55;;;;;;;;;;;5.30;99.90;;;;;;5095526;28;20371;-78
2022/03/10 05:42:20;;;;;;;;;;;5.30;99.90;;;;;;5092723;28;20020;-76
2022/03/10 05:44:47;;;;;;;;;;;5.30;99.90;;;;;;5095552;28;19915;-78
2022/03/10 05:47:12;;;;;;;;;;;5.40;99.90;;;;;;5097100;28;19912;-78
2022/03/10 05:49:38;;;;;;;;;;;5.40;99.90;;;;;;5096238;28;19920;-78
2022/03/10 05:52:04;;;;;;;;;;;5.40;99.90;;;;;;5096745;28;19908;-78
2022/03/10 05:54:29;;;;;;;;;;;5.30;99.90;;;;;;5096464;28;19908;-78
2022/03/10 05:56:55;;;;;;;;;;;5.30;99.90;;;;;;5096873;28;20352;-79
2022/03/10 05:59:21;;;;;;;;;;;5.30;99.90;;;;;;5097094;28;19920;-78
2022/03/10 06:01:46;;;;;;;;;;;5.30;99.90;;;;;;5096443;28;19982;-78
2022/03/10 06:04:12;;;;;;;;;;;5.30;99.90;;;;;;5096451;28;19961;-78
2022/03/10 06:06:37;;;;;;;;;;;5.30;99.90;;;;;;5096047;28;19935;-78
2022/03/10 06:09:03;;;;;;;;;;;5.30;99.90;;;;;;5096579;28;19916;-78
2022/03/10 06:11:29;;;;;;;;;;;5.30;99.90;;;;;;5096088;28;19943;-77
2022/03/10 06:13:55;;;;;;;;;;;5.20;99.90;;;;;;5096880;28;20364;-78
2022/03/10 06:16:21;;;;;;;;;;;5.20;99.90;;;;;;5096475;28;20012;-78
2022/03/10 06:18:46;;;;;;;;;;;5.20;99.90;;;;;;5095968;28;20352;-78
2022/03/10 06:21:12;;;;;;;;;;;5.20;99.90;;;;;;5096164;28;19916;-78
2022/03/10 06:23:37;;;;;;;;;;;5.20;99.90;;;;;;5095891;28;19912;-77
2022/03/10 06:26:03;;;;;;;;;;;5.20;99.90;;;;;;5096471;28;19915;-77
2022/03/10 06:28:30;;;;;;;;;;;5.20;99.90;;;;;;5095748;28;19911;-77
2022/03/10 06:30:55;;;;;;;;;;;5.20;99.90;;;;;;5095852;28;19989;-78
2022/03/10 06:33:21;;;;;;;;;;;5.20;99.90;;;;;;5096264;28;19912;-78
2022/03/10 06:35:46;;;;;;;;;;;5.20;99.90;;;;;;5095663;28;19915;-78
2022/03/10 06:38:12;;;;;;;;;;;5.20;99.90;;;;;;5095872;28;19969;-78
2022/03/10 06:40:38;;;;;;;;;;;5.20;99.90;;;;;;5094255;28;19919;-78
2022/03/10 06:43:03;;;;;;;;;;;5.20;99.90;;;;;;5095933;28;19951;-78
2022/03/10 06:45:29;;;;;;;;;;;5.20;99.90;;;;;;5095088;28;20357;-77
2022/03/10 06:47:55;;;;;;;;;;;5.20;99.90;;;;;;5095902;28;19908;-78
2022/03/10 06:50:20;;;;;;;;;;;5.10;99.90;;;;;;5094364;28;20262;-78
2022/03/10 06:52:46;;;;;;;;;;;5.10;99.90;;;;;;5094971;28;19908;-78
2022/03/10 06:55:12;;;;;;;;;;;5.10;99.90;;;;;;5100255;28;19915;-78
2022/03/10 06:57:38;;;;;;;;;;;5.20;99.90;;;;;;5101850;28;19912;-77
2022/03/10 07:00:05;;;;;;;;;;;5.20;99.90;;;;;;5095889;28;19916;-78
2022/03/10 07:02:30;;;;;;;;;;;5.10;99.90;;;;;;5095146;28;20261;-77
2022/03/10 07:04:56;;;;;;;;;;;5.20;99.90;;;;;;5095637;28;19914;-78
2022/03/10 07:07:22;;;;;;;;;;;5.20;99.90;;;;;;5095406;28;19912;-78
2022/03/10 07:09:47;;;;;;;;;;;5.20;99.90;;;;;;5094691;28;19923;-78
2022/03/10 07:12:13;;;;;;;;;;;5.20;99.90;;;;;;5095013;28;19991;-78
2022/03/10 07:14:38;;;;;;;;;;;5.10;99.90;;;;;;5094565;28;19908;-80
2022/03/10 07:17:04;;;;;;;;;;;5.10;99.90;;;;;;5093896;28;19966;-78
2022/03/10 07:19:29;;;;;;;;;;;5.10;99.90;;;;;;5094235;28;19955;-76
2022/03/10 07:21:55;;;;;;;;;;;5.10;99.90;;;;;;5095130;28;20273;-78
2022/03/10 07:24:20;;;;;;;;;;;5.20;99.90;;;;;;5095014;28;20271;-78
2022/03/10 07:26:46;;;;;;;;;;;5.20;99.90;;;;;;5093171;28;19998;-78
2022/03/10 07:29:12;;;;;;;;;;;5.20;99.90;;;;;;5095430;28;19982;-78
2022/03/10 07:31:37;;;;;;;;;;;5.20;99.90;;;;;;5094861;28;19938;-77
2022/03/10 07:34:03;;;;;;;;;;;5.30;99.90;;;;;;5094790;28;20368;-77
2022/03/10 07:36:29;;;;;;;;;;;5.30;99.90;;;;;;5094572;28;19908;-76
2022/03/10 07:38:54;;;;;;;;;;;5.30;99.90;;;;;;5094416;28;20011;-80
2022/03/10 07:41:20;;;;;;;;;;;5.30;99.90;;;;;;5094936;28;20444;-78
2022/03/10 07:43:45;;;;;;;;;;;5.20;99.90;;;;;;5094219;28;20418;-78
2022/03/10 07:46:11;;;;;;;;;;;5.30;99.90;;;;;;5094448;28;19955;-78
2022/03/10 07:48:36;;;;;;;;;;;5.30;99.90;;;;;;5094242;28;19908;-77
2022/03/10 07:51:02;;;;;;;;;;;5.40;99.90;;;;;;5094548;28;20357;-78
2022/03/10 07:53:28;;;;;;;;;;;5.30;99.90;;;;;;5094505;28;19961;-77
2022/03/10 07:55:56;;;;;;;;;;;5.40;99.90;;;;;;5093963;28;20289;-77
2022/03/10 07:58:23;;;;;;;;;;;5.50;99.90;;;;;;5094031;28;20006;-77
2022/03/10 08:00:49;;;;;;;;;;;5.50;99.90;;;;;;5094009;28;19966;-77
2022/03/10 08:03:14;;;;;;;;;;;5.70;99.90;;;;;;5094053;28;19908;-78
2022/03/10 08:05:40;;;;;;;;;;;5.80;99.90;;;;;;5093482;28;19953;-78
2022/03/10 08:08:05;;;;;;;;;;;6.00;99.90;;;;;;5093709;28;20276;-78
2022/03/10 08:10:31;;;;;;;;;;;6.30;99.90;;;;;;5093429;28;19916;-77
2022/03/10 08:12:57;;;;;;;;;;;6.30;99.90;;;;;;5097256;28;19939;-79
2022/03/10 08:15:23;;;;;;;;;;;6.30;99.90;;;;;;5101157;28;19994;-78
2022/03/10 08:17:48;;;;;;;;;;;6.40;99.90;;;;;;5093425;28;20445;-79
2022/03/10 08:20:14;;;;;;;;;;;6.40;99.90;;;;;;5093975;28;19943;-79
2022/03/10 08:22:40;;;;;;;;;;;6.30;99.90;;;;;;5093350;28;19991;-80
2022/03/10 08:25:05;;;;;;;;;;;6.40;99.90;;;;;;5093597;28;19962;-79
2022/03/10 08:27:31;;;;;;;;;;;6.40;99.90;;;;;;5093482;28;20357;-79
2022/03/10 08:29:57;;;;;;;;;;;6.50;99.90;;;;;;5091839;28;19922;-79
2022/03/10 08:32:25;;;;;;;;;;;6.60;99.90;;;;;;5092768;28;19909;-78
2022/03/10 08:34:51;;;;;;;;;;;6.60;99.90;;;;;;5092405;28;19912;-78
2022/03/10 08:37:18;;;;;;;;;;;6.60;99.90;;;;;;5093380;28;19931;-79
2022/03/10 08:39:44;;;;;;;;;;;6.60;99.90;;;;;;5093391;28;19961;-79
2022/03/10 08:42:10;;;;;;;;;;;6.70;99.90;;;;;;5093586;28;19937;-79
2022/03/10 08:44:35;;;;;;;;;;;6.70;99.90;;;;;;5093105;28;19908;-77
2022/03/10 08:47:01;;;;;;;;;;;6.70;99.90;;;;;;5093348;28;19958;-79
2022/03/10 08:49:27;;;;;;;;;;;6.90;99.90;;;;;;5093522;28;20421;-79
2022/03/10 08:51:52;;;;;;;;;;;6.90;99.90;;;;;;5092675;28;20376;-79
2022/03/10 08:54:18;;;;;;;;;;;7.00;99.90;;;;;;5093488;28;19913;-79
2022/03/10 08:56:43;;;;;;;;;;;7.00;99.90;;;;;;5092692;28;19952;-78
2022/03/10 08:59:09;;;;;;;;;;;7.00;99.90;;;;;;5093028;28;19920;-78
2022/03/10 09:01:34;;;;;;;;;;;7.10;99.90;;;;;;5092780;28;19908;-77
2022/03/10 09:04:00;;;;;;;;;;;7.20;99.90;;;;;;5092764;28;20333;-79
2022/03/10 09:06:26;;;;;;;;;;;7.30;99.90;;;;;;5092909;28;19908;-79
2022/03/10 09:08:51;;;;;;;;;;;7.40;99.90;;;;;;5091245;28;19952;-79
2022/03/10 09:11:17;;;;;;;;;;;7.40;99.90;;;;;;5092948;28;20289;-79
2022/03/10 09:13:48;;;;;;;;;;;7.40;99.90;;;;;;5092444;28;19962;-79
2022/03/10 09:16:17;;;;;;;;;;;7.50;99.90;;;;;;5093122;28;19957;-79
2022/03/10 09:18:45;;;;;;;;;;;7.50;99.90;;;;;;5092391;28;19908;-78
2022/03/10 09:21:11;;;;;;;;;;;7.40;99.90;;;;;;5092756;28;20066;-78
2022/03/10 09:23:36;;;;;;;;;;;7.40;99.90;;;;;;5092434;28;19913;-77
2022/03/10 09:26:02;;;;;;;;;;;7.40;99.90;;;;;;5092652;28;19912;-78
2022/03/10 09:28:28;;;;;;;;;;;7.40;99.90;;;;;;5092884;28;19919;-79
2022/03/10 09:30:53;;;;;;;;;;;7.40;99.90;;;;;;5096072;28;20362;-79
2022/03/10 09:33:19;;;;;;;;;;;7.40;99.90;;;;;;5097105;28;19908;-79
2022/03/10 09:35:44;;;;;;;;;;;7.40;99.90;;;;;;5091695;28;19908;-78
2022/03/10 09:38:10;;;;;;;;;;;7.50;99.90;;;;;;5090934;28;20008;-79
2022/03/10 09:40:36;;;;;;;;;;;7.50;99.90;;;;;;5092815;28;20260;-79
2022/03/10 09:43:01;;;;;;;;;;;7.60;99.90;;;;;;5091050;28;19966;-79
2022/03/10 09:45:29;;;;;;;;;;;7.60;99.90;;;;;;5092836;28;19999;-79
2022/03/10 09:47:54;;;;;;;;;;;7.70;99.90;;;;;;5092227;28;19908;-78
2022/03/10 09:50:20;;;;;;;;;;;7.70;99.90;;;;;;5092634;28;19923;-78
2022/03/10 09:52:46;;;;;;;;;;;7.80;99.90;;;;;;5092355;28;19969;-78
2022/03/10 09:55:13;;;;;;;;;;;7.80;99.90;;;;;;5092690;28;20353;-77
2022/03/10 09:57:39;;;;;;;;;;;7.80;99.90;;;;;;5090670;28;19913;-76
2022/03/10 10:00:05;;;;;;;;;;;7.90;99.90;;;;;;5092775;28;19912;-77
2022/03/10 10:02:31;;;;;;;;;;;7.90;99.90;;;;;;5092445;28;19908;-77
2022/03/10 10:04:57;;;;;;;;;;;7.90;99.90;;;;;;5092093;28;19915;-77
2022/03/10 10:07:27;;;;;;;;;;;8.00;99.90;;;;;;5092450;28;19916;-76
2022/03/10 10:09:54;;;;;;;;;;;7.90;99.90;;;;;;5092110;28;20069;-78
2022/03/10 10:12:29;;;;;;;;;;;7.90;99.90;;;;;;5092473;28;19915;-76
2022/03/10 10:14:56;;;;;;;;;;;7.90;99.90;;;;;;5092080;28;19908;-76
2022/03/10 10:17:26;;;;;;;;;;;8.00;99.90;;;;;;5092526;28;19908;-77
2022/03/10 10:19:53;;;;;;;;;;;8.00;99.90;;;;;;5092018;28;19908;-77
2022/03/10 10:22:20;;;;;;;;;;;8.00;99.90;;;;;;5092438;28;19908;-77
2022/03/10 10:24:49;;;;;;;;;;;8.00;99.90;;;;;;5091985;28;19908;-77
2022/03/10 10:27:15;;;;;;;;;;;8.10;99.90;;;;;;5092428;28;19961;-78
2022/03/10 10:29:48;;;;;;;;;;;8.10;99.90;;;;;;5093138;28;19916;-77
2022/03/10 10:32:22;;;;;;;;;;;8.20;99.90;;;;;;5096314;28;19915;-78
2022/03/10 10:34:56;;;;;;;;;;;8.20;99.90;;;;;;5094389;28;20357;-78
2022/03/10 10:37:22;;;;;;;;;;;8.20;99.90;;;;;;5096104;28;19947;-78
2022/03/10 10:39:52;;;;;;;;;;;8.30;99.90;;;;;;5095307;28;19966;-78
2022/03/10 10:42:17;;;;;;;;;;;8.20;99.90;;;;;;5095853;28;19999;-78
2022/03/10 10:44:43;;;;;;;;;;;8.30;99.90;;;;;;5095687;28;19952;-77
2022/03/10 10:47:08;;;;;;;;;;;8.20;99.90;;;;;;5097242;28;19930;-77
2022/03/10 10:49:38;;;;;;;;;;;8.30;99.90;;;;;;5103817;28;20337;-79
2022/03/10 10:52:09;;;;;;;;;;;8.40;99.90;;;;;;5095067;28;20093;-78
2022/03/10 10:54:35;;;;;;;;;;;8.30;99.90;;;;;;5095848;28;19908;-78
2022/03/10 10:57:02;;;;;;;;;;;8.30;99.90;;;;;;5095413;28;20327;-79
2022/03/10 10:59:41;;;;;;;;;;;8.40;99.90;;;;;;5095748;28;19931;-80
2022/03/10 11:02:17;;;;;;;;;;;8.40;99.90;;;;;;5094885;28;19908;-76
2022/03/10 11:04:43;;;;;;;;;;;8.50;99.90;;;;;;5095659;28;19931;-76
2022/03/10 11:07:09;;;;;;;;;;;8.60;99.90;;;;;;5093178;28;20007;-77
2022/03/10 11:09:36;;;;;;;;;;;8.60;99.90;;;;;;5095098;28;19923;-77
2022/03/10 11:12:01;;;;;;;;;;;8.60;99.90;;;;;;5094900;28;19908;-80
2022/03/10 11:14:27;;;;;;;;;;;8.60;99.90;;;;;;5095079;28;20265;-78
2022/03/10 11:16:53;;;;;;;;;;;8.60;99.90;;;;;;5094608;28;20250;-78
2022/03/10 11:19:25;;;;;;;;;;;8.60;99.90;;;;;;5095226;28;20383;-76
2022/03/10 11:22:09;;;;;;;;;;;8.60;99.90;;;;;;5094722;28;19912;-78
2022/03/10 11:24:37;;;;;;;;;;;8.60;99.90;;;;;;5095242;28;19999;-78
2022/03/10 11:27:03;;;;;;;;;;;8.60;99.90;;;;;;5094728;28;19908;-79
2022/03/10 11:29:31;;;;;;;;;;;8.60;99.90;;;;;;5094171;28;19920;-79
2022/03/10 11:31:56;;;;;;;;;;;8.70;99.90;;;;;;5094556;28;19908;-78
2022/03/10 11:34:41;;;;;;;;;;;8.70;99.90;;;;;;5095365;28;19930;-77
2022/03/10 11:37:09;;;;;;;;;;;8.80;99.90;;;;;;5094426;28;19915;-77
2022/03/10 11:39:52;;;;;;;;;;;8.80;99.90;;;;;;5094657;28;20045;-77
2022/03/10 11:42:30;;;;;;;;;;;8.90;99.90;;;;;;5093839;28;19914;-77
2022/03/10 11:45:05;;;;;;;;;;;8.80;99.90;;;;;;5094296;28;19953;-77
2022/03/10 11:47:31;;;;;;;;;;;8.90;99.90;;;;;;5094781;28;19998;-79
2022/03/10 11:49:56;;;;;;;;;;;8.90;99.90;;;;;;5092720;28;20392;-79
2022/03/10 11:52:22;;;;;;;;;;;8.90;99.90;;;;;;5094855;28;19915;-77
2022/03/10 11:55:02;;;;;;;;;;;9.00;99.90;;;;;;5094311;28;19916;-76
2022/03/10 11:57:28;;;;;;;;;;;9.00;99.90;;;;;;5094580;28;19919;-77
2022/03/10 11:59:53;;;;;;;;;;;9.00;99.90;;;;;;5096868;28;19924;-77
2022/03/10 12:02:29;;;;;;;;;;;9.10;99.90;;;;;;5104274;28;19915;-77
2022/03/10 12:04:55;;;;;;;;;;;9.10;99.90;;;;;;5094029;28;19912;-79
2022/03/10 12:07:26;;;;;;;;;;;9.20;99.90;;;;;;5093109;28;19908;-77
2022/03/10 12:10:05;;;;;;;;;;;9.20;99.90;;;;;;5093569;28;19916;-75
2022/03/10 12:12:35;;;;;;;;;;;9.20;99.90;;;;;;5094247;28;19922;-76
2022/03/10 12:15:36;;;;;;;;;;;9.20;99.90;;;;;;5093590;28;19915;-76
2022/03/10 12:18:23;;;;;;;;;;;9.20;99.90;;;;;;5050753;28;19976;-76
2022/03/10 12:20:50;;;;;;;;;;;9.30;99.90;;;;;;5091220;28;19916;-75
2022/03/10 12:23:16;;;;;;;;;;;9.40;99.90;;;;;;5093489;28;19912;-76
2022/03/10 12:25:46;;;;;;;;;;;9.40;99.90;;;;;;5094037;28;20313;-76
2022/03/10 12:28:24;;;;;;;;;;;9.50;99.90;;;;;;5093356;28;19915;-78
2022/03/10 12:30:52;;;;;;;;;;;9.50;99.90;;;;;;5091453;28;19916;-76
2022/03/10 12:33:18;;;;;;;;;;;9.50;99.90;;;;;;5092469;28;19912;-76
2022/03/10 12:35:44;;;;;;;;;;;9.40;99.90;;;;;;5092875;28;19930;-77
2022/03/10 12:38:10;;;;;;;;;;;9.50;99.90;;;;;;5093021;28;20522;-77
2022/03/10 12:40:37;;;;;;;;;;;9.60;99.90;;;;;;5093750;28;19995;-77
2022/03/10 12:43:04;;;;;;;;;;;9.60;99.90;;;;;;5096723;28;19908;-77
2022/03/10 12:45:29;;;;;;;;;;;9.60;99.90;;;;;;5093219;28;19915;-77
2022/03/10 12:48:02;;;;;;;;;;;9.60;99.90;;;;;;5092359;28;20286;-76
2022/03/10 12:50:27;;;;;;;;;;;9.70;99.90;;;;;;5092906;28;20077;-76
2022/03/10 12:52:55;;;;;;;;;;;9.80;99.90;;;;;;5091964;28;20023;-76
2022/03/10 12:55:27;;;;;;;;;;;9.90;99.90;;;;;;5092819;28;19908;-77
2022/03/10 12:57:57;;;;;;;;;;;10.00;99.90;;;;;;5091991;28;19931;-76
2022/03/10 13:00:23;;;;;;;;;;;10.00;99.90;;;;;;5092645;28;20376;-77
2022/03/10 13:02:48;;;;;;;;;;;10.10;99.90;;;;;;5092778;28;19908;-79
2022/03/10 13:05:20;;;;;;;;;;;10.20;99.90;;;;;;5091683;28;19909;-79
2022/03/10 13:07:46;;;;;;;;;;;10.40;99.90;;;;;;5092047;28;19993;-78
2022/03/10 13:10:14;;;;;;;;;;;10.50;99.90;;;;;;5091860;28;20274;-78
2022/03/10 13:12:41;;;;;;;;;;;10.50;99.90;;;;;;5101284;28;19908;-79
2022/03/10 13:15:08;;;;;;;;;;;10.50;99.90;;;;;;5097008;28;19908;-78
2022/03/10 13:17:35;;;;;;;;;;;10.40;99.90;;;;;;5092591;28;19909;-78
2022/03/10 13:20:01;;;;;;;;;;;10.40;99.90;;;;;;5092339;28;19969;-78
2022/03/10 13:22:27;;;;;;;;;;;10.30;99.90;;;;;;5092823;28;19995;-78
2022/03/10 13:24:52;;;;;;;;;;;10.20;99.90;;;;;;5092473;28;20313;-77
2022/03/10 13:27:21;;;;;;;;;;;10.20;99.90;;;;;;5092393;28;19918;-78
2022/03/10 13:29:47;;;;;;;;;;;10.20;99.90;;;;;;5092513;28;20364;-78
2022/03/10 13:32:15;;;;;;;;;;;10.30;99.90;;;;;;5092309;28;19944;-78
2022/03/10 13:34:41;;;;;;;;;;;10.30;99.90;;;;;;5092714;28;20287;-78
2022/03/10 13:37:07;;;;;;;;;;;10.50;99.90;;;;;;5096753;28;19962;-77
2022/03/10 13:39:33;;;;;;;;;;;10.60;99.90;;;;;;5094061;28;19909;-77
2022/03/10 13:41:58;;;;;;;;;;;10.70;99.90;;;;;;5092478;28;19915;-78
2022/03/10 13:44:27;;;;;;;;;;;10.80;99.90;;;;;;5093053;28;19908;-79
2022/03/10 13:47:02;;;;;;;;;;;10.80;99.90;;;;;;5092804;28;19985;-76
2022/03/10 13:49:28;;;;;;;;;;;10.90;99.90;;;;;;5092614;28;19917;-77
2022/03/10 13:51:54;;;;;;;;;;;11.00;99.90;;;;;;5092546;28;20005;-75
2022/03/10 13:54:20;;;;;;;;;;;11.10;99.90;;;;;;5092596;28;19915;-77
2022/03/10 13:56:48;;;;;;;;;;;11.10;99.90;;;;;;5092614;28;19908;-77
2022/03/10 13:59:15;;;;;;;;;;;11.20;99.90;;;;;;5091804;28;20578;-77
2022/03/10 14:01:41;;;;;;;;;;;11.20;99.90;;;;;;5092561;28;20002;-76
2022/03/10 14:04:09;;;;;;;;;;;11.20;99.90;;;;;;5091802;28;20010;-76
2022/03/10 14:06:44;;;;;;;;;;;11.20;99.90;;;;;;5096400;28;19959;-76
2022/03/10 14:09:20;;;;;;;;;;;11.20;99.90;;;;;;5095737;28;20011;-78
2022/03/10 14:11:46;;;;;;;;;;;11.20;99.90;;;;;;5096579;28;19915;-77
2022/03/10 14:14:12;;;;;;;;;;;11.30;99.90;;;;;;5095523;28;20274;-77
2022/03/10 14:16:48;;;;;;;;;;;11.30;99.90;;;;;;5096263;28;19913;-77
2022/03/10 14:19:34;;;;;;;;;;;11.30;99.90;;;;;;5095250;28;19995;-77
2022/03/10 14:22:03;;;;;;;;;;;11.30;99.90;;;;;;5095707;28;20249;-80
2022/03/10 14:24:33;;;;;;;;;;;11.40;99.90;;;;;;5101642;28;19944;-79
2022/03/10 14:27:06;;;;;;;;;;;11.40;99.90;;;;;;5100914;28;19919;-76
2022/03/10 14:29:35;;;;;;;;;;;11.50;99.90;;;;;;5096190;28;19916;-78
2022/03/10 14:32:01;;;;;;;;;;;11.50;99.90;;;;;;5095695;28;19908;-78